createdAt,value
2019-04-13T00:01:41.136Z,19.73
2019-04-13T00:04:10.494Z,16.63
2019-04-13T00:06:45.235Z,18.47
2019-04-13T00:09:16.343Z,18.13
2019-04-13T00:12:10.734Z,18.97
2019-04-13T00:14:40.108Z,18.92
2019-04-13T00:17:09.504Z,17.57
2019-04-13T00:19:38.872Z,17.77
2019-04-13T00:22:08.272Z,19.40
2019-04-13T00:24:37.643Z,17.30
2019-04-13T00:27:06.960Z,17.80
2019-04-13T00:29:36.363Z,18.53
2019-04-13T00:32:05.737Z,18.13
2019-04-13T00:34:41.297Z,18.32
2019-04-13T00:37:06.151Z,18.37
2019-04-13T00:39:35.522Z,18.07
2019-04-13T00:42:04.935Z,19.55
2019-04-13T00:44:34.303Z,17.48
2019-04-13T00:47:03.699Z,17.07
2019-04-13T00:49:33.066Z,17.27
2019-04-13T00:52:02.708Z,19.60
2019-04-13T00:54:32.290Z,15.50
2019-04-13T00:57:01.928Z,16.32
2019-04-13T00:59:31.443Z,16.95
2019-04-13T01:02:01.093Z,16.70
2019-04-13T01:04:30.734Z,16.17
2019-04-13T01:07:00.366Z,17.60
2019-04-13T01:09:29.949Z,17.85
2019-04-13T01:11:59.578Z,17.60
2019-04-13T01:14:29.179Z,16.00
2019-04-13T01:16:58.797Z,16.70
2019-04-13T01:19:28.743Z,16.07
2019-04-13T01:21:58.149Z,16.53
2019-04-13T01:24:27.518Z,16.93
2019-04-13T01:26:56.915Z,15.83
2019-04-13T01:29:26.312Z,17.42
2019-04-13T01:31:55.702Z,16.17
2019-04-13T01:34:25.071Z,14.28
2019-04-13T01:36:54.483Z,17.27
2019-04-13T01:39:23.842Z,16.43
2019-04-13T01:41:53.230Z,17.17
2019-04-13T01:44:22.591Z,15.73
2019-04-13T01:46:51.992Z,16.10
2019-04-13T01:49:21.374Z,15.45
2019-04-13T01:51:50.759Z,16.13
2019-04-13T01:54:20.123Z,17.12
2019-04-13T01:56:49.526Z,16.25
2019-04-13T01:59:18.887Z,14.78
2019-04-13T02:01:58.903Z,15.60
2019-04-13T02:04:44.094Z,15.10
2019-04-13T02:07:32.447Z,16.32
2019-04-13T02:10:08.922Z,14.25
2019-04-13T02:12:38.323Z,16.40
2019-04-13T02:15:08.832Z,16.25
2019-04-13T02:17:38.223Z,17.42
2019-04-13T02:20:08.521Z,16.60
2019-04-13T02:22:37.906Z,14.58
2019-04-13T02:25:07.378Z,14.43
2019-04-13T02:27:36.834Z,15.93
2019-04-13T02:30:06.908Z,16.30
2019-04-13T02:32:36.285Z,14.93
2019-04-13T02:35:05.975Z,15.48
2019-04-13T02:37:35.351Z,14.85
2019-04-13T02:40:05.600Z,16.12
2019-04-13T02:42:34.975Z,15.93
2019-04-13T02:45:04.467Z,14.45
2019-04-13T02:47:33.827Z,16.45
2019-04-13T02:50:03.238Z,16.15
2019-04-13T02:52:32.592Z,15.50
2019-04-13T02:55:01.984Z,15.23
2019-04-13T02:57:31.414Z,16.05
2019-04-13T03:00:00.826Z,14.45
2019-04-13T03:02:30.130Z,14.25
2019-04-13T03:04:59.523Z,15.72
2019-04-13T03:07:28.899Z,14.35
2019-04-13T03:09:58.277Z,14.58
2019-04-13T03:12:27.635Z,15.13
2019-04-13T03:14:57.038Z,16.37
2019-04-13T03:17:55.686Z,16.00
2019-04-13T03:20:27.924Z,16.70
2019-04-13T03:22:57.285Z,15.25
2019-04-13T03:25:26.706Z,15.88
2019-04-13T03:27:56.404Z,15.70
2019-04-13T03:30:37.699Z,15.55
2019-04-13T03:33:07.097Z,14.00
2019-04-13T03:35:36.509Z,14.47
2019-04-13T03:38:05.903Z,16.15
2019-04-13T03:40:35.527Z,14.53
2019-04-13T03:43:04.916Z,15.70
2019-04-13T03:45:34.340Z,14.20
2019-04-13T03:48:03.729Z,14.13
2019-04-13T03:50:33.316Z,15.88
2019-04-13T03:53:02.638Z,15.43
2019-04-13T03:55:32.067Z,15.70
2019-04-13T03:58:01.469Z,13.98
2019-04-13T04:00:30.887Z,15.63
2019-04-13T04:03:00.272Z,15.00
2019-04-13T04:05:29.684Z,16.32
2019-04-13T04:07:59.071Z,15.30
2019-04-13T04:10:28.488Z,15.48
2019-04-13T04:12:57.927Z,15.20
2019-04-13T04:15:27.640Z,16.02
2019-04-13T04:17:57.040Z,15.63
2019-04-13T04:20:26.463Z,15.72
2019-04-13T04:22:55.845Z,15.50
2019-04-13T04:25:25.266Z,14.13
2019-04-13T04:27:54.659Z,15.10
2019-04-13T04:30:24.107Z,14.45
2019-04-13T04:32:53.493Z,16.90
2019-04-13T04:35:22.920Z,16.32
2019-04-13T04:37:52.314Z,15.35
2019-04-13T04:40:21.772Z,14.35
2019-04-13T04:42:51.199Z,14.30
2019-04-13T04:45:20.596Z,16.00
2019-04-13T04:47:50.032Z,16.57
2019-04-13T04:50:19.424Z,16.17
2019-04-13T04:52:48.847Z,15.53
2019-04-13T04:55:18.240Z,16.32
2019-04-13T04:57:47.653Z,15.93
2019-04-13T05:00:17.052Z,14.93
2019-04-13T05:02:46.472Z,13.55
2019-04-13T05:05:15.852Z,15.28
2019-04-13T05:07:45.275Z,15.05
2019-04-13T05:10:14.812Z,14.47
2019-04-13T05:12:44.211Z,16.07
2019-04-13T05:15:14.011Z,13.55
2019-04-13T05:17:43.432Z,15.58
2019-04-13T05:20:13.124Z,15.72
2019-04-13T05:22:42.544Z,16.25
2019-04-13T05:25:12.038Z,15.50
2019-04-13T05:27:41.460Z,13.93
2019-04-13T05:30:10.875Z,15.50
2019-04-13T05:32:40.299Z,14.80
2019-04-13T05:35:09.714Z,17.00
2019-04-13T05:37:39.140Z,15.75
2019-04-13T05:40:08.627Z,16.50
2019-04-13T05:42:38.039Z,15.80
2019-04-13T05:45:07.535Z,15.45
2019-04-13T05:47:36.952Z,15.88
2019-04-13T05:50:07.224Z,15.18
2019-04-13T05:52:36.649Z,15.98
2019-04-13T05:55:07.204Z,15.20
2019-04-13T05:57:38.827Z,14.95
2019-04-13T06:00:07.751Z,15.17
2019-04-13T06:02:37.168Z,16.62
2019-04-13T06:05:07.833Z,15.83
2019-04-13T06:07:37.264Z,15.55
2019-04-13T06:10:07.476Z,14.50
2019-04-13T06:12:37.071Z,15.53
2019-04-13T06:15:06.984Z,15.87
2019-04-13T06:17:36.398Z,15.27
2019-04-13T06:20:06.401Z,15.03
2019-04-13T06:22:35.779Z,15.50
2019-04-13T06:25:09.436Z,14.90
2019-04-13T06:27:36.406Z,15.47
2019-04-13T06:30:25.654Z,15.33
2019-04-13T06:33:00.820Z,16.63
2019-04-13T06:35:30.316Z,15.47
2019-04-13T06:37:59.709Z,14.40
2019-04-13T06:40:29.136Z,15.63
2019-04-13T06:42:58.526Z,15.20
2019-04-13T06:45:27.942Z,17.07
2019-04-13T06:48:00.196Z,15.37
2019-04-13T06:50:28.393Z,15.37
2019-04-13T06:52:57.776Z,17.80
2019-04-13T06:55:27.203Z,15.57
2019-04-13T06:57:56.599Z,14.60
2019-04-13T07:00:26.016Z,15.87
2019-04-13T07:02:55.412Z,17.73
2019-04-13T07:05:25.371Z,17.00
2019-04-13T07:08:13.458Z,17.13
2019-04-13T07:11:13.704Z,15.07
2019-04-13T07:13:48.289Z,15.00
2019-04-13T07:16:27.400Z,17.20
2019-04-13T07:18:56.791Z,16.67
2019-04-13T07:21:26.207Z,17.53
2019-04-13T07:23:57.822Z,18.20
2019-04-13T07:26:26.655Z,16.77
2019-04-13T07:28:56.051Z,16.20
2019-04-13T07:31:25.512Z,17.80
2019-04-13T07:33:54.843Z,16.00
2019-04-13T07:36:24.252Z,17.50
2019-04-13T07:38:53.643Z,16.47
2019-04-13T07:41:23.056Z,17.00
2019-04-13T07:43:52.433Z,18.23
2019-04-13T07:46:40.780Z,18.03
2019-04-13T07:49:27.923Z,16.53
2019-04-13T07:52:07.732Z,15.17
2019-04-13T07:54:37.127Z,16.73
2019-04-13T07:57:06.545Z,15.37
2019-04-13T07:59:35.935Z,17.63
2019-04-13T08:02:05.380Z,18.13
2019-04-13T08:04:34.751Z,14.73
2019-04-13T08:07:06.429Z,16.63
2019-04-13T08:09:35.188Z,16.20
2019-04-13T08:12:04.596Z,15.60
2019-04-13T08:14:34.040Z,18.23
2019-04-13T08:17:07.747Z,17.50
2019-04-13T08:19:45.492Z,17.67
2019-04-13T08:22:15.208Z,17.90
2019-04-13T08:24:48.346Z,18.33
2019-04-13T08:27:15.724Z,17.10
2019-04-13T08:29:45.546Z,18.23
2019-04-13T08:32:15.131Z,17.93
2019-04-13T08:34:44.532Z,17.67
2019-04-13T08:37:13.933Z,16.80
2019-04-13T08:39:43.308Z,18.13
2019-04-13T08:42:19.534Z,17.63
2019-04-13T08:44:44.742Z,16.63
2019-04-13T08:47:14.160Z,16.70
2019-04-13T08:49:43.553Z,17.73
2019-04-13T08:52:12.959Z,15.13
2019-04-13T08:54:42.343Z,19.13
2019-04-13T08:57:11.748Z,18.53
2019-04-13T08:59:41.133Z,18.30
2019-04-13T09:02:10.560Z,17.83
2019-04-13T09:04:39.924Z,16.80
2019-04-13T09:07:09.337Z,17.93
2019-04-13T09:09:40.255Z,16.50
2019-04-13T09:12:11.529Z,18.23
2019-04-13T09:14:40.999Z,18.30
2019-04-13T09:17:14.934Z,17.70
2019-04-13T09:19:59.438Z,17.50
2019-04-13T09:22:29.105Z,17.60
2019-04-13T09:24:58.477Z,16.97
2019-04-13T09:27:27.899Z,19.60
2019-04-13T09:29:57.308Z,17.53
2019-04-13T09:32:28.154Z,17.87
2019-04-13T09:34:57.762Z,16.13
2019-04-13T09:37:27.143Z,19.63
2019-04-13T09:39:56.578Z,15.20
2019-04-13T09:42:25.992Z,15.90
2019-04-13T09:44:55.400Z,16.53
2019-04-13T09:47:27.796Z,14.73
2019-04-13T09:50:00.055Z,15.43
2019-04-13T09:52:31.188Z,16.50
2019-04-13T09:54:59.299Z,18.00
2019-04-13T09:57:29.284Z,17.60
2019-04-13T09:59:58.894Z,18.40
2019-04-13T10:02:28.583Z,16.87
2019-04-13T10:04:57.984Z,16.80
2019-04-13T10:07:27.372Z,17.70
2019-04-13T10:09:56.784Z,18.03
2019-04-13T10:12:51.488Z,16.63
2019-04-13T10:15:55.169Z,17.60
2019-04-13T10:18:29.869Z,19.00
2019-04-13T10:20:59.267Z,16.30
2019-04-13T10:23:30.018Z,19.10
2019-04-13T10:25:59.720Z,17.63
2019-04-13T10:28:29.151Z,18.70
2019-04-13T10:30:58.557Z,17.87
2019-04-13T10:33:27.939Z,20.17
2019-04-13T10:35:57.348Z,17.77
2019-04-13T10:38:26.732Z,18.00
2019-04-13T10:40:56.131Z,17.67
2019-04-13T10:43:25.524Z,18.17
2019-04-13T10:46:16.648Z,16.37
2019-04-13T10:49:00.808Z,14.47
2019-04-13T10:51:37.980Z,18.10
2019-04-13T10:54:07.383Z,19.43
2019-04-13T10:56:36.761Z,15.83
2019-04-13T10:59:06.194Z,16.50
2019-04-13T11:01:35.583Z,17.23
2019-04-13T11:04:05.020Z,16.30
2019-04-13T11:06:34.399Z,18.00
2019-04-13T11:09:05.395Z,16.33
2019-04-13T11:11:34.800Z,15.27
2019-04-13T11:14:04.199Z,16.50
2019-04-13T11:16:34.003Z,19.23
2019-04-13T11:19:07.467Z,17.87
2019-04-13T11:21:34.515Z,18.90
2019-04-13T11:24:03.932Z,15.70
2019-04-13T11:26:33.393Z,18.13
2019-04-13T11:29:02.784Z,17.07
2019-04-13T11:31:32.187Z,17.43
2019-04-13T11:34:01.569Z,18.83
2019-04-13T11:36:31.067Z,17.63
2019-04-13T11:39:02.442Z,17.30
2019-04-13T11:41:46.023Z,17.57
2019-04-13T11:44:38.006Z,17.90
2019-04-13T11:47:35.371Z,16.47
2019-04-13T11:50:05.760Z,16.97
2019-04-13T11:52:35.163Z,18.53
2019-04-13T11:55:04.672Z,17.60
2019-04-13T11:57:34.073Z,17.33
2019-04-13T12:00:05.575Z,19.20
2019-04-13T12:02:42.080Z,18.10
2019-04-13T12:05:39.780Z,17.83
2019-04-13T12:08:12.500Z,16.37
2019-04-13T12:10:58.116Z,16.33
2019-04-13T12:13:50.384Z,16.60
2019-04-13T12:16:37.503Z,17.67
2019-04-13T12:19:31.915Z,18.00
2019-04-13T12:22:08.843Z,18.00
2019-04-13T12:24:38.263Z,17.47
2019-04-13T12:27:07.675Z,17.90
2019-04-13T12:29:39.274Z,16.90
2019-04-13T12:32:15.732Z,18.47
2019-04-13T12:34:45.143Z,18.27
2019-04-13T12:37:14.554Z,19.00
2019-04-13T12:39:44.793Z,18.70
2019-04-13T12:42:14.192Z,17.20
2019-04-13T12:44:43.575Z,17.87
2019-04-13T12:47:17.323Z,17.00
2019-04-13T12:49:46.708Z,18.17
2019-04-13T12:52:16.116Z,17.30
2019-04-13T12:54:45.501Z,19.30
2019-04-13T12:57:16.102Z,19.80
2019-04-13T12:59:45.848Z,17.47
2019-04-13T13:02:34.164Z,17.70
2019-04-13T13:05:20.760Z,16.90
2019-04-13T13:07:50.265Z,14.80
2019-04-13T13:10:24.310Z,15.60
2019-04-13T13:12:50.703Z,16.70
2019-04-13T13:15:20.079Z,17.10
2019-04-13T13:17:51.988Z,18.37
2019-04-13T13:20:20.527Z,18.37
2019-04-13T13:22:49.935Z,18.07
2019-04-13T13:25:21.587Z,16.03
2019-04-13T13:27:50.382Z,16.63
2019-04-13T13:30:20.642Z,15.60
2019-04-13T13:32:50.299Z,16.93
2019-04-13T13:35:19.706Z,17.37
2019-04-13T13:37:49.088Z,16.93
2019-04-13T13:40:30.752Z,16.77
2019-04-13T13:42:49.527Z,17.63
2019-04-13T13:45:18.931Z,17.83
2019-04-13T13:47:48.362Z,18.90
2019-04-13T13:50:21.949Z,18.10
2019-04-13T13:52:48.784Z,16.80
2019-04-13T13:55:18.188Z,18.17
2019-04-13T13:57:56.193Z,17.67
2019-04-13T14:00:37.799Z,17.57
2019-04-13T14:03:09.915Z,17.47
2019-04-13T14:05:38.372Z,15.70
2019-04-13T14:08:07.756Z,16.47
2019-04-13T14:10:42.802Z,16.70
2019-04-13T14:13:08.196Z,20.37
2019-04-13T14:15:40.643Z,17.13
2019-04-13T14:18:08.628Z,17.90
2019-04-13T14:20:38.036Z,17.97
2019-04-13T14:23:07.407Z,18.90
2019-04-13T14:25:36.804Z,17.40
2019-04-13T14:28:06.187Z,16.97
2019-04-13T14:30:35.631Z,18.13
2019-04-13T14:33:05.028Z,18.27
2019-04-13T14:35:34.429Z,18.40
2019-04-13T14:38:03.919Z,20.30
2019-04-13T14:40:33.325Z,17.93
2019-04-13T14:43:02.708Z,17.53
2019-04-13T14:45:32.168Z,18.97
2019-04-13T14:48:04.289Z,17.37
2019-04-13T14:50:35.869Z,15.43
2019-04-13T14:53:03.645Z,17.07
2019-04-13T14:55:33.050Z,18.00
2019-04-13T14:58:02.440Z,20.03
2019-04-13T15:00:31.852Z,18.17
2019-04-13T15:03:03.447Z,18.27
2019-04-13T15:05:32.296Z,17.53
2019-04-13T15:08:01.681Z,18.70
2019-04-13T15:10:31.092Z,18.00
2019-04-13T15:13:02.041Z,18.13
2019-04-13T15:15:36.657Z,17.77
2019-04-13T15:18:22.089Z,16.37
2019-04-13T15:20:55.337Z,15.73
2019-04-13T15:23:23.532Z,17.87
2019-04-13T15:25:52.896Z,15.93
2019-04-13T15:28:23.319Z,15.50
2019-04-13T15:30:57.265Z,17.10
2019-04-13T15:33:24.623Z,17.13
2019-04-13T15:35:58.297Z,18.73
2019-04-13T15:38:27.723Z,17.50
2019-04-13T15:40:58.814Z,18.47
2019-04-13T15:43:30.540Z,17.30
2019-04-13T15:45:58.161Z,18.17
2019-04-13T15:48:28.851Z,18.70
2019-04-13T15:50:59.589Z,18.03
2019-04-13T15:53:29.088Z,18.20
2019-04-13T15:55:58.984Z,19.13
2019-04-13T15:58:29.325Z,17.23
2019-04-13T16:00:58.937Z,17.40
2019-04-13T16:03:28.373Z,16.77
2019-04-13T16:05:58.185Z,17.00
2019-04-13T16:08:29.151Z,16.67
2019-04-13T16:11:12.391Z,15.83
2019-04-13T16:13:41.767Z,17.97
2019-04-13T16:16:11.443Z,17.60
2019-04-13T16:18:41.302Z,17.57
2019-04-13T16:21:10.813Z,16.63
2019-04-13T16:23:41.227Z,16.70
2019-04-13T16:26:10.861Z,16.73
2019-04-13T16:28:59.016Z,16.17
2019-04-13T16:31:53.327Z,14.97
2019-04-13T16:34:44.426Z,15.17
2019-04-13T16:37:29.971Z,14.40
2019-04-13T16:39:59.881Z,13.70
2019-04-13T16:42:32.842Z,15.07
2019-04-13T16:45:09.614Z,15.97
2019-04-13T16:47:49.608Z,15.70
2019-04-13T16:50:28.475Z,16.97
2019-04-13T16:53:15.927Z,15.17
2019-04-13T16:55:49.486Z,14.13
2019-04-13T16:58:38.574Z,15.20
2019-04-13T17:01:39.566Z,16.17
2019-04-13T17:04:44.335Z,15.70
2019-04-13T17:07:13.892Z,15.33
2019-04-13T17:09:43.607Z,16.23
2019-04-13T17:12:23.142Z,12.53
2019-04-13T17:14:44.092Z,13.53
2019-04-13T17:17:13.588Z,14.33
2019-04-13T17:20:04.004Z,15.27
2019-04-13T17:22:51.993Z,15.07
2019-04-13T17:25:50.029Z,15.27
2019-04-13T17:28:37.408Z,14.90
2019-04-13T17:31:26.355Z,14.77
2019-04-13T17:34:07.157Z,15.33
2019-04-13T17:36:38.119Z,14.77
2019-04-13T17:39:08.739Z,14.83
2019-04-13T17:41:47.099Z,14.33
2019-04-13T17:44:35.460Z,15.10
2019-04-13T17:47:22.772Z,15.63
2019-04-13T17:50:10.037Z,16.53
2019-04-13T17:53:05.712Z,14.73
2019-04-13T17:55:44.821Z,14.80
2019-04-13T17:58:31.850Z,14.63
2019-04-13T18:01:29.448Z,15.27
2019-04-13T18:04:16.679Z,15.37
2019-04-13T18:07:02.995Z,16.70
2019-04-13T18:09:55.913Z,14.67
2019-04-13T18:12:55.206Z,14.93
2019-04-13T18:15:59.598Z,14.70
2019-04-13T18:18:37.816Z,14.27
2019-04-13T18:21:07.953Z,15.30
2019-04-13T18:23:38.259Z,15.10
2019-04-13T18:26:08.546Z,14.40
2019-04-13T18:28:38.019Z,13.30
2019-04-13T18:31:08.482Z,14.67
2019-04-13T18:33:39.008Z,14.67
2019-04-13T18:36:09.246Z,15.10
2019-04-13T18:38:39.740Z,15.93
2019-04-13T18:41:10.198Z,17.83
2019-04-13T18:43:39.652Z,14.90
2019-04-13T18:46:09.432Z,14.63
2019-04-13T18:48:40.215Z,15.73
2019-04-13T18:51:10.528Z,15.07
2019-04-13T18:53:41.818Z,13.90
2019-04-13T18:56:11.015Z,15.20
2019-04-13T18:58:41.480Z,15.20
2019-04-13T19:01:11.562Z,16.30
2019-04-13T19:03:41.000Z,15.70
2019-04-13T19:06:10.460Z,14.27
2019-04-13T19:08:39.860Z,14.40
2019-04-13T19:11:09.268Z,16.60
2019-04-13T19:13:38.646Z,15.03
2019-04-13T19:16:08.057Z,15.60
2019-04-13T19:18:37.443Z,15.30
2019-04-13T19:21:06.851Z,16.07
2019-04-13T19:23:36.235Z,16.13
2019-04-13T19:26:05.651Z,15.27
2019-04-13T19:28:35.039Z,16.40
2019-04-13T19:31:04.472Z,15.87
2019-04-13T19:33:33.860Z,16.10
2019-04-13T19:36:03.269Z,15.90
2019-04-13T19:38:32.668Z,16.67
2019-04-13T19:41:02.077Z,16.83
2019-04-13T19:43:31.455Z,18.20
2019-04-13T19:46:00.876Z,16.20
2019-04-13T19:48:30.260Z,17.03
2019-04-13T19:50:59.663Z,18.70
2019-04-13T19:53:48.765Z,18.30
2019-04-13T19:56:20.116Z,18.07
2019-04-13T19:58:49.507Z,17.80
2019-04-13T20:01:22.536Z,16.90
2019-04-13T20:03:51.908Z,18.33
2019-04-13T20:06:21.322Z,17.77
2019-04-13T20:08:50.771Z,17.93
2019-04-13T20:11:20.148Z,17.50
2019-04-13T20:13:56.473Z,16.83
2019-04-13T20:16:21.117Z,17.60
2019-04-13T20:18:50.574Z,16.90
2019-04-13T20:21:19.964Z,17.20
2019-04-13T20:23:49.415Z,19.07
2019-04-13T20:26:18.801Z,17.30
2019-04-13T20:28:48.354Z,18.67
2019-04-13T20:31:18.234Z,19.87
2019-04-13T20:33:48.167Z,20.63
2019-04-13T20:36:20.684Z,19.30
2019-04-13T20:38:49.565Z,18.60
2019-04-13T20:41:23.693Z,19.33
2019-04-13T20:43:59.836Z,19.43
2019-04-13T20:46:24.240Z,19.47
2019-04-13T20:48:53.655Z,19.83
2019-04-13T20:51:23.593Z,19.90
2019-04-13T20:53:53.160Z,20.87
2019-04-13T20:56:22.968Z,21.23
2019-04-13T20:58:53.260Z,21.60
2019-04-13T21:01:23.473Z,21.77
2019-04-13T21:03:53.419Z,20.07
2019-04-13T21:06:24.016Z,22.67
2019-04-13T21:08:55.849Z,22.83
2019-04-13T21:11:24.618Z,22.32
2019-04-13T21:14:03.799Z,22.47
2019-04-13T21:16:25.654Z,24.03
2019-04-13T21:18:55.844Z,23.27
2019-04-13T21:21:25.877Z,22.50
2019-04-13T21:23:55.972Z,23.20
2019-04-13T21:26:26.931Z,22.57
2019-04-13T21:28:56.492Z,23.53
2019-04-13T21:31:26.026Z,25.63
2019-04-13T21:33:56.183Z,24.50
2019-04-13T21:36:25.995Z,24.17
2019-04-13T21:38:56.318Z,23.03
2019-04-13T21:41:26.128Z,22.40
2019-04-13T21:43:57.481Z,24.57
2019-04-13T21:46:26.677Z,23.40
2019-04-13T21:48:56.820Z,23.37
2019-04-13T21:51:45.085Z,24.57
2019-04-13T21:54:18.984Z,23.13
2019-04-13T21:56:49.455Z,22.48
2019-04-13T21:59:19.402Z,23.60
2019-04-13T22:02:13.971Z,25.60
2019-04-13T22:04:43.650Z,24.75
2019-04-13T22:07:13.625Z,26.63
2019-04-13T22:09:43.496Z,26.03
2019-04-13T22:12:13.282Z,23.43
2019-04-13T22:14:51.120Z,25.15
2019-04-13T22:17:14.036Z,26.33
2019-04-13T22:19:44.106Z,24.53
2019-04-13T22:22:14.068Z,25.30
2019-04-13T22:24:44.199Z,24.10
2019-04-13T22:27:14.584Z,22.20
2019-04-13T22:29:48.410Z,26.23
2019-04-13T22:32:55.909Z,24.67
2019-04-13T22:35:49.903Z,24.33
2019-04-13T22:38:19.806Z,23.77
2019-04-13T22:40:49.648Z,24.77
2019-04-13T22:43:19.564Z,24.83
2019-04-13T22:45:49.307Z,24.10
2019-04-13T22:48:50.665Z,26.13
2019-04-13T22:51:46.775Z,23.93
2019-04-13T22:54:37.059Z,23.63
2019-04-13T22:57:30.449Z,24.80
2019-04-13T23:00:00.012Z,24.10
2019-04-13T23:02:45.256Z,23.17
2019-04-13T23:05:15.488Z,26.20
2019-04-13T23:07:45.661Z,24.10
2019-04-13T23:10:15.991Z,24.13
2019-04-13T23:12:46.496Z,23.07
2019-04-13T23:15:22.741Z,25.33
2019-04-13T23:17:48.303Z,24.03
2019-04-13T23:20:17.796Z,24.73
2019-04-13T23:22:47.427Z,25.83
2019-04-13T23:25:17.819Z,26.40
2019-04-13T23:27:48.218Z,26.00
2019-04-13T23:30:18.244Z,25.43
2019-04-13T23:32:48.763Z,27.13
2019-04-13T23:35:19.200Z,25.50
2019-04-13T23:37:49.644Z,25.13
2019-04-13T23:40:20.274Z,25.70
2019-04-13T23:42:50.493Z,27.27
2019-04-13T23:45:31.073Z,25.27
2019-04-13T23:47:58.218Z,25.80
2019-04-13T23:50:28.517Z,25.40
2019-04-13T23:52:58.834Z,25.00
2019-04-13T23:55:37.826Z,25.30
2019-04-13T23:58:19.282Z,25.80
